createdAt,value
2023-03-22T00:00:57.396Z,99874.50
2023-03-22T00:02:19.612Z,99870.53
2023-03-22T00:03:41.396Z,99868.84
2023-03-22T00:05:07.198Z,99829.25
2023-03-22T00:06:30.221Z,99821.75
2023-03-22T00:07:54.303Z,99838.25
2023-03-22T00:09:19.509Z,99815.38
2023-03-22T00:10:46.946Z,99847.72
2023-03-22T00:12:11.443Z,99841.50
2023-03-22T00:13:35.708Z,99858.38
2023-03-22T00:15:00.275Z,99843.38
2023-03-22T00:16:22.385Z,99827.41
2023-03-22T00:17:45.669Z,99811.47
2023-03-22T00:19:07.098Z,99816.75
2023-03-22T00:20:30.729Z,99846.63
2023-03-22T00:21:53.040Z,99841.25
2023-03-22T00:23:14.418Z,99841.41
2023-03-22T00:24:36.406Z,99836.69
2023-03-22T00:25:58.021Z,99827.53
2023-03-22T00:27:21.989Z,99832.53
2023-03-22T00:28:47.009Z,99806.72
2023-03-22T00:30:12.208Z,99782.47
2023-03-22T00:31:34.147Z,99806.66
2023-03-22T00:32:57.028Z,99798.75
2023-03-22T00:34:19.628Z,99819.72
2023-03-22T00:35:41.202Z,99818.16
2023-03-22T00:37:06.257Z,99818.78
2023-03-22T00:38:41.991Z,99822.31
2023-03-22T00:40:05.397Z,99815.28
2023-03-22T00:41:27.393Z,99811.94
2023-03-22T00:42:50.897Z,99808.78
2023-03-22T00:44:13.864Z,99816.66
2023-03-22T00:45:38.294Z,99808.31
2023-03-22T00:47:00.806Z,99801.19
2023-03-22T00:48:22.807Z,99804.81
2023-03-22T00:49:45.001Z,99802.47
2023-03-22T00:51:07.080Z,99776.97
2023-03-22T00:52:29.085Z,99805.53
2023-03-22T00:53:55.601Z,99793.28
2023-03-22T00:55:19.059Z,99787.63
2023-03-22T00:56:45.642Z,99799.31
2023-03-22T00:58:10.031Z,99780.69
2023-03-22T00:59:32.868Z,99803.03
2023-03-22T01:00:55.018Z,99789.09
2023-03-22T01:02:17.855Z,99791.63
2023-03-22T01:03:38.816Z,99794.16
2023-03-22T01:05:02.639Z,99794.97
2023-03-22T01:06:25.175Z,99801.19
2023-03-22T01:07:45.724Z,99795.16
2023-03-22T01:09:07.731Z,99792.66
2023-03-22T01:10:29.798Z,99793.09
2023-03-22T01:11:51.778Z,99774.72
2023-03-22T01:13:17.892Z,99794.31
2023-03-22T01:14:39.980Z,99782.72
2023-03-22T01:16:02.195Z,99781.44
2023-03-22T01:17:24.434Z,99764.19
2023-03-22T01:18:48.684Z,99787.56
2023-03-22T01:20:12.712Z,99754.66
2023-03-22T01:21:34.350Z,99784.88
2023-03-22T01:22:57.203Z,99778.84
2023-03-22T01:24:19.730Z,99777.63
2023-03-22T01:25:41.170Z,99750.19
2023-03-22T01:27:03.671Z,99768.75
2023-03-22T01:28:27.318Z,99765.56
2023-03-22T01:29:49.956Z,99763.91
2023-03-22T01:31:12.204Z,99760.03
2023-03-22T01:32:33.406Z,99768.53
2023-03-22T01:33:55.550Z,99758.00
2023-03-22T01:35:19.638Z,99762.50
2023-03-22T01:36:42.101Z,99761.13
2023-03-22T01:38:05.833Z,99761.94
2023-03-22T01:39:33.244Z,99769.03
2023-03-22T01:40:59.886Z,99740.44
2023-03-22T01:42:24.836Z,99763.63
2023-03-22T01:44:12.681Z,99769.84
2023-03-22T01:45:38.015Z,99745.09
2023-03-22T01:47:00.912Z,99731.72
2023-03-22T01:48:27.340Z,99753.22
2023-03-22T01:49:49.672Z,99728.88
2023-03-22T01:51:14.376Z,99738.31
2023-03-22T01:52:51.428Z,99743.69
2023-03-22T01:54:26.105Z,99755.75
2023-03-22T01:55:47.881Z,99750.38
2023-03-22T01:57:18.559Z,99753.88
2023-03-22T01:58:42.812Z,99754.09
2023-03-22T02:00:10.502Z,99750.75
2023-03-22T02:01:37.245Z,99737.41
2023-03-22T02:03:00.326Z,99741.00
2023-03-22T02:04:34.594Z,99743.34
2023-03-22T02:05:59.824Z,99747.03
2023-03-22T02:07:27.516Z,99750.53
2023-03-22T02:08:58.194Z,99746.19
2023-03-22T02:10:25.671Z,99737.88
2023-03-22T02:12:03.361Z,99732.38
2023-03-22T02:13:48.167Z,99724.69
2023-03-22T02:15:36.583Z,99748.25
2023-03-22T02:17:26.643Z,99733.69
2023-03-22T02:19:16.757Z,99746.56
2023-03-22T02:21:10.674Z,99740.56
2023-03-22T02:22:48.018Z,99724.03
2023-03-22T02:24:56.984Z,99731.44
2023-03-22T02:26:50.034Z,99739.34
2023-03-22T02:28:25.084Z,99719.97
2023-03-22T02:29:53.361Z,99705.06
2023-03-22T02:31:35.417Z,99737.31
2023-03-22T02:33:30.945Z,99735.81
2023-03-22T02:35:37.057Z,99741.84
2023-03-22T02:37:27.774Z,99722.13
2023-03-22T02:39:08.382Z,99737.47
2023-03-22T02:40:34.994Z,99741.00
2023-03-22T02:42:28.974Z,99738.31
2023-03-22T02:44:03.550Z,99733.31
2023-03-22T02:45:31.504Z,99718.13
2023-03-22T02:47:03.228Z,99732.66
2023-03-22T02:48:30.490Z,99745.38
2023-03-22T02:50:03.912Z,99729.25
2023-03-22T02:51:30.541Z,99738.78
2023-03-22T02:52:57.472Z,99738.78
2023-03-22T02:54:28.233Z,99722.19
2023-03-22T02:55:54.901Z,99730.53
2023-03-22T02:57:25.770Z,99720.97
2023-03-22T02:58:54.319Z,99724.69
2023-03-22T03:00:19.500Z,99731.16
2023-03-22T03:01:45.732Z,99719.88
2023-03-22T03:03:12.865Z,99716.19
2023-03-22T03:04:39.128Z,99722.09
2023-03-22T03:06:08.529Z,99740.38
2023-03-22T03:07:32.563Z,99729.63
2023-03-22T03:08:58.114Z,99733.97
2023-03-22T03:10:24.150Z,99720.63
2023-03-22T03:11:47.575Z,99734.50
2023-03-22T03:13:13.591Z,99733.50
2023-03-22T03:14:35.673Z,99742.47
2023-03-22T03:15:59.859Z,99728.19
2023-03-22T03:17:33.834Z,99740.63
2023-03-22T03:19:02.474Z,99734.41
2023-03-22T03:20:39.300Z,99746.03
2023-03-22T03:22:09.563Z,99726.44
2023-03-22T03:23:41.526Z,99720.16
2023-03-22T03:25:09.724Z,99750.19
2023-03-22T03:26:44.700Z,99737.19
2023-03-22T03:28:12.828Z,99751.19
2023-03-22T03:29:42.722Z,99733.69
2023-03-22T03:31:17.993Z,99741.38
2023-03-22T03:32:43.247Z,99759.09
2023-03-22T03:34:14.356Z,99751.75
2023-03-22T03:35:41.091Z,99745.53
2023-03-22T03:37:10.592Z,99761.78
2023-03-22T03:38:38.499Z,99762.88
2023-03-22T03:40:06.806Z,99768.91
2023-03-22T03:41:33.286Z,99763.06
2023-03-22T03:42:59.164Z,99763.34
2023-03-22T03:44:26.083Z,99763.13
2023-03-22T03:45:49.051Z,99765.66
2023-03-22T03:47:12.361Z,99760.84
2023-03-22T03:48:36.060Z,99770.66
2023-03-22T03:49:58.686Z,99774.16
2023-03-22T03:51:19.939Z,99761.28
2023-03-22T03:52:42.459Z,99774.81
2023-03-22T03:54:04.845Z,99760.06
2023-03-22T03:55:48.495Z,99767.31
2023-03-22T03:57:34.226Z,99762.69
2023-03-22T03:58:56.957Z,99775.66
2023-03-22T04:00:20.531Z,99775.47
2023-03-22T04:02:05.723Z,99775.47
2023-03-22T04:03:27.425Z,99773.78
2023-03-22T04:05:20.319Z,99780.03
2023-03-22T04:06:42.994Z,99779.38
2023-03-22T04:08:08.546Z,99784.38
2023-03-22T04:09:33.774Z,99746.72
2023-03-22T04:11:11.326Z,99773.63
2023-03-22T04:12:34.964Z,99774.00
2023-03-22T04:14:18.727Z,99758.97
2023-03-22T04:15:43.845Z,99771.94
2023-03-22T04:17:10.637Z,99765.91
2023-03-22T04:18:32.277Z,99764.25
2023-03-22T04:19:58.304Z,99765.72
2023-03-22T04:21:20.053Z,99748.03
2023-03-22T04:22:49.939Z,99749.25
2023-03-22T04:24:14.086Z,99757.59
2023-03-22T04:25:39.201Z,99758.41
2023-03-22T04:27:04.681Z,99749.91
2023-03-22T04:28:34.034Z,99741.25
2023-03-22T04:29:58.263Z,99735.00
2023-03-22T04:31:40.272Z,99748.50
2023-03-22T04:33:13.314Z,99762.22
2023-03-22T04:34:55.483Z,99745.75
2023-03-22T04:36:17.682Z,99760.09
2023-03-22T04:37:59.470Z,99758.81
2023-03-22T04:39:21.628Z,99747.56
2023-03-22T04:40:53.368Z,99756.50
2023-03-22T04:42:25.703Z,99751.47
2023-03-22T04:44:08.385Z,99749.53
2023-03-22T04:45:35.215Z,99754.09
2023-03-22T04:47:00.182Z,99748.72
2023-03-22T04:48:22.464Z,99750.75
2023-03-22T04:49:46.697Z,99746.38
2023-03-22T04:51:12.571Z,99743.69
2023-03-22T04:52:43.821Z,99739.34
2023-03-22T04:54:07.384Z,99736.66
2023-03-22T04:55:30.164Z,99734.78
2023-03-22T04:56:53.542Z,99730.44
2023-03-22T04:58:17.542Z,99731.28
2023-03-22T04:59:41.601Z,99725.44
2023-03-22T05:01:07.028Z,99724.88
2023-03-22T05:02:32.439Z,99729.25
2023-03-22T05:03:54.002Z,99717.19
2023-03-22T05:05:18.919Z,99729.25
2023-03-22T05:06:42.805Z,99732.59
2023-03-22T05:08:14.782Z,99731.28
2023-03-22T05:09:39.874Z,99734.78
2023-03-22T05:11:09.244Z,99738.13
2023-03-22T05:12:30.617Z,99736.28
2023-03-22T05:14:13.304Z,99686.69
2023-03-22T05:15:35.714Z,99730.72
2023-03-22T05:17:01.088Z,99723.88
2023-03-22T05:18:26.414Z,99723.88
2023-03-22T05:19:56.683Z,99729.34
2023-03-22T05:21:25.211Z,99735.53
2023-03-22T05:23:13.078Z,99735.53
2023-03-22T05:27:31.891Z,99694.22
2023-03-22T05:29:15.603Z,99726.94
2023-03-22T05:31:08.516Z,99715.69
2023-03-22T05:32:49.752Z,99716.75
2023-03-22T05:34:12.363Z,99745.91
2023-03-22T05:35:37.493Z,99742.19
2023-03-22T05:37:00.929Z,99742.84
2023-03-22T05:38:37.816Z,99741.00
2023-03-22T05:40:01.008Z,99738.78
2023-03-22T05:41:36.364Z,99747.28
2023-03-22T05:42:58.746Z,99753.59
2023-03-22T05:44:22.735Z,99753.84
2023-03-22T05:45:58.786Z,99750.16
2023-03-22T05:47:32.794Z,99745.88
2023-03-22T05:49:04.159Z,99750.50
2023-03-22T05:50:26.617Z,99748.06
2023-03-22T05:51:50.771Z,99748.38
2023-03-22T05:53:14.650Z,99739.44
2023-03-22T05:54:43.431Z,99744.91
2023-03-22T05:56:05.257Z,99747.84
2023-03-22T05:57:30.148Z,99749.16
2023-03-22T05:58:53.361Z,99724.66
2023-03-22T06:00:24.467Z,99738.69
2023-03-22T06:02:07.217Z,99741.28
2023-03-22T06:03:28.966Z,99715.75
2023-03-22T06:05:03.262Z,99738.56
2023-03-22T06:06:28.203Z,99710.91
2023-03-22T06:08:13.419Z,99716.16
2023-03-22T06:09:36.239Z,99739.97
2023-03-22T06:11:02.391Z,99734.22
2023-03-22T06:12:27.726Z,99738.81
2023-03-22T06:14:03.439Z,99742.34
2023-03-22T06:15:42.201Z,99730.31
2023-03-22T06:17:07.036Z,99705.28
2023-03-22T06:18:29.727Z,99737.44
2023-03-22T06:19:58.713Z,99726.88
2023-03-22T06:21:22.151Z,99738.38
2023-03-22T06:22:45.018Z,99731.34
2023-03-22T06:24:06.762Z,99714.34
2023-03-22T06:25:30.112Z,99734.00
2023-03-22T06:26:51.802Z,99744.66
2023-03-22T06:28:14.576Z,99735.75
2023-03-22T06:29:43.318Z,99747.03
2023-03-22T06:31:11.096Z,99702.38
2023-03-22T06:32:47.109Z,99719.97
2023-03-22T06:34:09.837Z,99717.06
2023-03-22T06:35:35.283Z,99727.69
2023-03-22T06:37:00.189Z,99726.69
2023-03-22T06:38:35.973Z,99702.81
2023-03-22T06:39:58.703Z,99725.25
2023-03-22T06:41:26.735Z,99712.16
2023-03-22T06:42:52.485Z,99700.75
2023-03-22T06:44:14.597Z,99712.59
2023-03-22T06:45:47.937Z,99721.50
2023-03-22T06:47:16.390Z,99714.81
2023-03-22T06:48:53.925Z,99715.34
2023-03-22T06:50:16.888Z,99751.25
2023-03-22T06:52:12.828Z,99745.28
2023-03-22T06:53:35.427Z,99717.63
2023-03-22T06:54:59.077Z,99737.38
2023-03-22T06:56:21.690Z,99745.25
2023-03-22T06:57:51.631Z,99722.75
2023-03-22T06:59:14.055Z,99722.63
2023-03-22T07:00:39.528Z,99739.81
2023-03-22T07:02:08.152Z,99748.69
2023-03-22T07:03:32.446Z,99734.72
2023-03-22T07:05:07.878Z,99732.84
2023-03-22T07:06:33.737Z,99728.03
2023-03-22T07:07:58.744Z,99753.34
2023-03-22T07:09:25.100Z,99734.38
2023-03-22T07:11:01.242Z,99744.72
2023-03-22T07:12:28.948Z,99740.09
2023-03-22T07:14:00.587Z,99751.41
2023-03-22T07:15:48.865Z,99715.44
2023-03-22T07:17:33.152Z,99707.00
2023-03-22T07:19:04.122Z,99751.31
2023-03-22T07:20:28.466Z,99730.59
2023-03-22T07:21:58.442Z,99751.31
2023-03-22T07:23:28.717Z,99757.50
2023-03-22T07:25:01.608Z,99743.78
2023-03-22T07:26:26.831Z,99750.78
2023-03-22T07:28:00.112Z,99747.47
2023-03-22T07:29:29.859Z,99730.78
2023-03-22T07:31:06.115Z,99750.47
2023-03-22T07:32:44.234Z,99708.44
2023-03-22T07:34:24.444Z,99741.66
2023-03-22T07:36:03.521Z,99723.41
2023-03-22T07:37:28.054Z,99736.22
2023-03-22T07:38:54.312Z,99731.13
2023-03-22T07:40:28.608Z,99741.13
2023-03-22T07:42:00.448Z,99703.81
2023-03-22T07:43:53.076Z,99728.09
2023-03-22T07:45:18.622Z,99712.63
2023-03-22T07:46:56.341Z,99719.47
2023-03-22T07:48:32.695Z,99733.22
2023-03-22T07:50:34.617Z,99732.63
2023-03-22T07:52:06.952Z,99725.28
2023-03-22T07:53:29.480Z,99711.34
2023-03-22T07:54:59.444Z,99711.09
2023-03-22T07:56:26.504Z,99698.09
2023-03-22T07:57:49.250Z,99727.84
2023-03-22T07:59:19.534Z,99695.19
2023-03-22T08:00:42.476Z,99719.78
2023-03-22T08:02:39.528Z,99705.84
2023-03-22T08:04:02.903Z,99718.91
2023-03-22T08:05:36.179Z,99730.84
2023-03-22T08:07:04.826Z,99717.47
2023-03-22T08:08:28.873Z,99707.63
2023-03-22T08:09:58.367Z,99703.16
2023-03-22T08:11:40.299Z,99695.22
2023-03-22T08:13:04.239Z,99693.88
2023-03-22T08:14:36.582Z,99721.75
2023-03-22T08:16:06.304Z,99692.41
2023-03-22T08:17:32.432Z,99724.16
2023-03-22T08:18:54.959Z,99726.88
2023-03-22T08:20:27.574Z,99703.22
2023-03-22T08:21:56.360Z,99685.50
2023-03-22T08:24:07.069Z,99687.22
2023-03-22T08:25:40.163Z,99688.38
2023-03-22T08:27:12.421Z,99719.19
2023-03-22T08:28:41.566Z,99705.47
2023-03-22T08:30:12.157Z,99689.78
2023-03-22T08:31:39.277Z,99719.81
2023-03-22T08:33:04.705Z,99705.66
2023-03-22T08:34:33.582Z,99710.63
2023-03-22T08:36:09.502Z,99720.84
2023-03-22T08:37:39.838Z,99706.03
2023-03-22T08:39:06.837Z,99718.94
2023-03-22T08:40:47.216Z,99717.78
2023-03-22T08:42:16.450Z,99730.59
2023-03-22T08:43:39.956Z,99706.03
2023-03-22T08:45:03.171Z,99727.28
2023-03-22T08:46:31.497Z,99720.56
2023-03-22T08:47:58.533Z,99713.69
2023-03-22T08:49:27.661Z,99725.53
2023-03-22T08:51:08.281Z,99721.00
2023-03-22T08:52:43.290Z,99724.41
2023-03-22T08:54:22.639Z,99717.94
2023-03-22T08:56:02.514Z,99703.22
2023-03-22T08:57:50.784Z,99717.72
2023-03-22T08:59:36.328Z,99723.16
2023-03-22T09:01:37.767Z,99719.25
2023-03-22T09:03:03.835Z,99712.19
2023-03-22T09:04:28.763Z,99719.81
2023-03-22T09:05:52.977Z,99722.00
2023-03-22T09:07:17.963Z,99700.50
2023-03-22T09:08:47.413Z,99710.59
2023-03-22T09:10:23.650Z,99709.63
2023-03-22T09:11:48.037Z,99696.00
2023-03-22T09:13:18.005Z,99700.06
2023-03-22T09:14:48.289Z,99712.19
2023-03-22T09:16:15.357Z,99714.25
2023-03-22T09:17:39.681Z,99716.16
2023-03-22T09:19:02.971Z,99696.84
2023-03-22T09:20:26.668Z,99712.09
2023-03-22T09:21:50.368Z,99696.06
2023-03-22T09:23:36.306Z,99702.63
2023-03-22T09:25:04.489Z,99698.41
2023-03-22T09:26:30.415Z,99693.78
2023-03-22T09:27:52.929Z,99714.72
2023-03-22T09:29:17.261Z,99693.28
2023-03-22T09:30:40.691Z,99698.50
2023-03-22T09:32:07.342Z,99708.66
2023-03-22T09:33:44.626Z,99670.59
2023-03-22T09:35:08.854Z,99702.91
2023-03-22T09:36:43.077Z,99698.75
2023-03-22T09:38:06.684Z,99704.31
2023-03-22T09:39:30.007Z,99709.22
2023-03-22T09:41:03.319Z,99690.00
2023-03-22T09:42:35.434Z,99699.94
2023-03-22T09:44:05.625Z,99708.91
2023-03-22T09:45:38.750Z,99705.06
2023-03-22T09:47:07.128Z,99700.19
2023-03-22T09:48:34.033Z,99675.16
2023-03-22T09:50:14.274Z,99708.38
2023-03-22T09:51:43.112Z,99698.94
2023-03-22T09:53:15.136Z,99702.50
2023-03-22T09:54:42.344Z,99693.03
2023-03-22T09:56:11.891Z,99697.13
2023-03-22T09:57:38.096Z,99688.31
2023-03-22T09:59:15.068Z,99684.50
2023-03-22T10:00:45.864Z,99690.09
2023-03-22T10:02:28.759Z,99685.03
2023-03-22T10:04:13.746Z,99676.41
2023-03-22T10:05:42.159Z,99674.69
2023-03-22T10:07:12.042Z,99668.53
2023-03-22T10:08:52.546Z,99680.63
2023-03-22T10:10:23.637Z,99678.63
2023-03-22T10:11:50.384Z,99676.25
2023-03-22T10:13:23.362Z,99683.09
2023-03-22T10:14:53.041Z,99672.38
2023-03-22T10:16:29.712Z,99686.94
2023-03-22T10:18:02.180Z,99683.75
2023-03-22T10:19:28.404Z,99678.00
2023-03-22T10:20:59.339Z,99670.28
2023-03-22T10:22:30.293Z,99678.22
2023-03-22T10:23:57.032Z,99674.47
2023-03-22T10:25:27.105Z,99674.44
2023-03-22T10:26:50.220Z,99649.47
2023-03-22T10:28:20.717Z,99672.34
2023-03-22T10:29:54.422Z,99653.38
2023-03-22T10:31:21.573Z,99681.09
2023-03-22T10:32:57.750Z,99666.28
2023-03-22T10:34:24.937Z,99682.84
2023-03-22T10:35:53.568Z,99664.00
2023-03-22T10:37:19.098Z,99653.69
2023-03-22T10:38:48.485Z,99683.44
2023-03-22T10:40:20.440Z,99676.44
2023-03-22T10:41:43.159Z,99681.16
2023-03-22T10:43:14.495Z,99669.69
2023-03-22T10:44:50.429Z,99667.81
2023-03-22T10:46:24.511Z,99659.63
2023-03-22T10:47:52.106Z,99685.34
2023-03-22T10:49:23.659Z,99675.28
2023-03-22T10:50:46.350Z,99669.34
2023-03-22T10:52:25.437Z,99678.16
2023-03-22T10:53:49.790Z,99665.81
2023-03-22T10:55:13.882Z,99651.81
2023-03-22T10:56:36.522Z,99670.91
2023-03-22T10:58:12.518Z,99674.16
2023-03-22T10:59:48.839Z,99664.00
2023-03-22T11:01:17.500Z,99671.25
2023-03-22T11:02:52.432Z,99669.50
2023-03-22T11:04:15.295Z,99664.41
2023-03-22T11:05:39.120Z,99657.25
2023-03-22T11:07:01.665Z,99658.94
2023-03-22T11:08:24.381Z,99657.38
2023-03-22T11:09:48.143Z,99652.16
2023-03-22T11:11:23.258Z,99645.88
2023-03-22T11:12:51.155Z,99643.72
2023-03-22T11:14:18.629Z,99646.97
2023-03-22T11:15:52.372Z,99642.63
2023-03-22T11:17:19.459Z,99638.50
2023-03-22T11:18:43.361Z,99644.25
2023-03-22T11:20:07.826Z,99639.06
2023-03-22T11:21:34.214Z,99635.75
2023-03-22T11:22:58.083Z,99640.97
2023-03-22T11:24:24.042Z,99631.66
2023-03-22T11:25:49.526Z,99626.69
2023-03-22T11:27:21.608Z,99631.88
2023-03-22T11:28:47.332Z,99625.59
2023-03-22T11:30:21.273Z,99617.34
2023-03-22T11:31:55.188Z,99615.72
2023-03-22T11:33:21.339Z,99616.53
2023-03-22T11:34:47.480Z,99620.91
2023-03-22T11:36:19.111Z,99612.97
2023-03-22T11:37:42.732Z,99608.00
2023-03-22T11:39:09.395Z,99613.47
2023-03-22T11:40:32.650Z,99611.56
2023-03-22T11:41:57.761Z,99609.09
2023-03-22T11:43:24.789Z,99608.00
2023-03-22T11:44:46.939Z,99601.44
2023-03-22T11:46:10.173Z,99594.03
2023-03-22T11:47:37.379Z,99597.84
2023-03-22T11:49:02.049Z,99597.31
2023-03-22T11:50:31.484Z,99593.19
2023-03-22T11:51:54.592Z,99591.25
2023-03-22T11:53:19.578Z,99590.16
2023-03-22T11:54:43.991Z,99591.00
2023-03-22T11:56:08.752Z,99586.88
2023-03-22T11:57:37.227Z,99584.44
2023-03-22T11:59:04.615Z,99572.91
2023-03-22T12:00:29.728Z,99580.34
2023-03-22T12:01:56.711Z,99567.16
2023-03-22T12:03:23.349Z,99570.19
2023-03-22T12:04:49.239Z,99571.56
2023-03-22T12:06:26.072Z,99564.72
2023-03-22T12:07:50.052Z,99561.41
2023-03-22T12:09:25.199Z,99561.16
2023-03-22T12:10:51.558Z,99566.66
2023-03-22T12:12:19.226Z,99559.78
2023-03-22T12:13:48.173Z,99561.44
2023-03-22T12:15:17.071Z,99566.63
2023-03-22T12:16:48.781Z,99567.75
2023-03-22T12:18:17.774Z,99568.56
2023-03-22T12:19:52.088Z,99559.78
2023-03-22T12:21:15.849Z,99569.41
2023-03-22T12:22:43.494Z,99562.53
2023-03-22T12:24:13.190Z,99561.72
2023-03-22T12:25:38.349Z,99563.63
2023-03-22T12:27:06.561Z,99557.28
2023-03-22T12:28:34.893Z,99557.03
2023-03-22T12:30:01.011Z,99560.88
2023-03-22T12:31:26.676Z,99554.84
2023-03-22T12:32:53.839Z,99560.03
2023-03-22T12:34:18.850Z,99553.47
2023-03-22T12:35:46.330Z,99551.56
2023-03-22T12:37:22.077Z,99547.97
2023-03-22T12:38:50.579Z,99545.22
2023-03-22T12:40:22.200Z,99548.50
2023-03-22T12:41:48.235Z,99543.84
2023-03-22T12:43:18.301Z,99536.97
2023-03-22T12:44:46.485Z,99545.19
2023-03-22T12:46:20.106Z,99545.38
2023-03-22T12:47:45.610Z,99543.19
2023-03-22T12:49:21.569Z,99529.97
2023-03-22T12:50:48.467Z,99543.41
2023-03-22T12:52:16.820Z,99533.78
2023-03-22T12:53:43.681Z,99529.41
2023-03-22T12:55:07.328Z,99531.00
2023-03-22T12:56:38.374Z,99524.97
2023-03-22T12:58:01.810Z,99532.09
2023-03-22T12:59:28.055Z,99526.84
2023-03-22T13:00:55.081Z,99525.13
2023-03-22T13:02:20.382Z,99517.16
2023-03-22T13:03:47.597Z,99518.97
2023-03-22T13:05:12.927Z,99519.75
2023-03-22T13:06:57.296Z,99527.59
2023-03-22T13:08:22.006Z,99516.31
2023-03-22T13:09:46.760Z,99496.50
2023-03-22T13:11:24.299Z,99514.84
2023-03-22T13:13:16.045Z,99509.63
2023-03-22T13:15:00.423Z,99521.06
2023-03-22T13:16:25.558Z,99515.63
2023-03-22T13:17:48.008Z,99512.59
2023-03-22T13:19:29.707Z,99506.47
2023-03-22T13:21:13.984Z,99511.63
2023-03-22T13:23:01.747Z,99502.84
2023-03-22T13:24:25.016Z,99499.00
2023-03-22T13:26:03.874Z,99503.59
2023-03-22T13:27:38.034Z,99498.09
2023-03-22T13:29:03.453Z,99513.72
2023-03-22T13:30:28.140Z,99496.75
2023-03-22T13:31:58.857Z,99504.38
2023-03-22T13:33:25.904Z,99501.06
2023-03-22T13:34:50.995Z,99502.19
2023-03-22T13:36:25.735Z,99497.19
2023-03-22T13:37:51.342Z,99502.66
2023-03-22T13:39:17.827Z,99497.19
2023-03-22T13:40:50.994Z,99496.66
2023-03-22T13:42:22.995Z,99502.41
2023-03-22T13:43:50.317Z,99504.34
2023-03-22T13:45:32.655Z,99500.25
2023-03-22T13:46:59.839Z,99498.38
2023-03-22T13:48:33.667Z,99479.53
2023-03-22T13:50:02.514Z,99488.75
2023-03-22T13:51:32.023Z,99481.16
2023-03-22T13:52:59.756Z,99477.06
2023-03-22T13:54:25.119Z,99477.41
2023-03-22T13:56:00.446Z,99473.03
2023-03-22T13:57:46.463Z,99474.97
2023-03-22T13:59:12.966Z,99476.34
2023-03-22T14:00:42.840Z,99479.09
2023-03-22T14:02:13.058Z,99475.00
2023-03-22T14:03:37.807Z,99479.13
2023-03-22T14:05:04.314Z,99480.47
2023-03-22T14:06:29.322Z,99473.09
2023-03-22T14:07:54.543Z,99473.63
2023-03-22T14:09:26.814Z,99474.97
2023-03-22T14:10:53.888Z,99464.28
2023-03-22T14:12:21.330Z,99475.50
2023-03-22T14:13:56.406Z,99465.06
2023-03-22T14:15:20.985Z,99465.34
2023-03-22T14:16:47.118Z,99462.84
2023-03-22T14:18:17.328Z,99457.09
2023-03-22T14:19:40.095Z,99457.06
2023-03-22T14:21:07.650Z,99463.78
